sensor_id;sensor_type;location;lat;lon;timestamp;P1;durP1;ratioP1;P2;durP2;ratioP2
53411;SDS011;39307;52.870;13.660;2023-05-24T00:01:44;14.07;;;3.67;;
53411;SDS011;39307;52.870;13.660;2023-05-24T00:04:11;11.23;;;3.60;;
53411;SDS011;39307;52.870;13.660;2023-05-24T00:06:37;13.00;;;3.13;;
53411;SDS011;39307;52.870;13.660;2023-05-24T00:09:03;11.85;;;3.60;;
53411;SDS011;39307;52.870;13.660;2023-05-24T00:11:30;12.80;;;3.50;;
53411;SDS011;39307;52.870;13.660;2023-05-24T00:13:56;12.70;;;4.10;;
53411;SDS011;39307;52.870;13.660;2023-05-24T00:16:22;13.63;;;3.60;;
53411;SDS011;39307;52.870;13.660;2023-05-24T00:18:49;15.07;;;3.70;;
53411;SDS011;39307;52.870;13.660;2023-05-24T00:21:15;11.77;;;3.35;;
53411;SDS011;39307;52.870;13.660;2023-05-24T00:23:41;11.35;;;3.92;;
53411;SDS011;39307;52.870;13.660;2023-05-24T00:26:07;11.52;;;3.40;;
53411;SDS011;39307;52.870;13.660;2023-05-24T00:28:33;13.75;;;4.00;;
53411;SDS011;39307;52.870;13.660;2023-05-24T00:31:00;11.33;;;3.80;;
53411;SDS011;39307;52.870;13.660;2023-05-24T00:33:26;11.35;;;3.40;;
53411;SDS011;39307;52.870;13.660;2023-05-24T00:35:53;9.57;;;3.17;;
53411;SDS011;39307;52.870;13.660;2023-05-24T00:38:19;11.50;;;3.60;;
53411;SDS011;39307;52.870;13.660;2023-05-24T00:40:46;14.93;;;3.90;;
53411;SDS011;39307;52.870;13.660;2023-05-24T00:43:12;13.73;;;3.90;;
53411;SDS011;39307;52.870;13.660;2023-05-24T00:45:39;12.73;;;3.63;;
53411;SDS011;39307;52.870;13.660;2023-05-24T00:48:05;9.60;;;3.63;;
53411;SDS011;39307;52.870;13.660;2023-05-24T00:50:32;10.17;;;3.40;;
53411;SDS011;39307;52.870;13.660;2023-05-24T00:53:02;16.65;;;4.07;;
53411;SDS011;39307;52.870;13.660;2023-05-24T00:55:32;10.75;;;3.25;;
53411;SDS011;39307;52.870;13.660;2023-05-24T00:57:59;9.82;;;3.13;;
53411;SDS011;39307;52.870;13.660;2023-05-24T01:00:26;11.15;;;3.45;;
53411;SDS011;39307;52.870;13.660;2023-05-24T01:02:53;12.45;;;3.20;;
53411;SDS011;39307;52.870;13.660;2023-05-24T01:05:20;12.00;;;3.40;;
53411;SDS011;39307;52.870;13.660;2023-05-24T01:07:53;11.15;;;3.58;;
53411;SDS011;39307;52.870;13.660;2023-05-24T01:10:30;11.02;;;3.35;;
53411;SDS011;39307;52.870;13.660;2023-05-24T01:13:19;10.70;;;3.20;;
53411;SDS011;39307;52.870;13.660;2023-05-24T01:16:04;11.77;;;3.57;;
53411;SDS011;39307;52.870;13.660;2023-05-24T01:18:43;11.48;;;3.00;;
53411;SDS011;39307;52.870;13.660;2023-05-24T01:27:05;12.98;;;3.85;;
53411;SDS011;39307;52.870;13.660;2023-05-24T01:29:34;12.05;;;3.42;;
53411;SDS011;39307;52.870;13.660;2023-05-24T01:32:01;13.27;;;3.53;;
53411;SDS011;39307;52.870;13.660;2023-05-24T01:34:27;11.25;;;3.40;;
53411;SDS011;39307;52.870;13.660;2023-05-24T01:36:54;11.23;;;3.40;;
53411;SDS011;39307;52.870;13.660;2023-05-24T01:39:21;9.98;;;3.33;;
53411;SDS011;39307;52.870;13.660;2023-05-24T01:44:38;11.57;;;3.15;;
53411;SDS011;39307;52.870;13.660;2023-05-24T01:49:53;11.73;;;3.40;;
53411;SDS011;39307;52.870;13.660;2023-05-24T01:52:22;11.52;;;3.30;;
53411;SDS011;39307;52.870;13.660;2023-05-24T01:54:56;8.35;;;2.70;;
53411;SDS011;39307;52.870;13.660;2023-05-24T01:57:23;10.93;;;3.03;;
53411;SDS011;39307;52.870;13.660;2023-05-24T01:59:52;10.02;;;2.70;;
53411;SDS011;39307;52.870;13.660;2023-05-24T02:02:19;10.38;;;2.78;;
53411;SDS011;39307;52.870;13.660;2023-05-24T02:04:46;12.23;;;3.25;;
53411;SDS011;39307;52.870;13.660;2023-05-24T02:07:12;9.05;;;2.90;;
53411;SDS011;39307;52.870;13.660;2023-05-24T02:09:39;10.10;;;3.00;;
53411;SDS011;39307;52.870;13.660;2023-05-24T02:12:05;10.87;;;3.37;;
53411;SDS011;39307;52.870;13.660;2023-05-24T02:14:32;11.93;;;2.95;;
53411;SDS011;39307;52.870;13.660;2023-05-24T02:16:58;11.50;;;3.22;;
53411;SDS011;39307;52.870;13.660;2023-05-24T02:19:24;12.20;;;3.28;;
53411;SDS011;39307;52.870;13.660;2023-05-24T02:21:50;11.98;;;3.10;;
53411;SDS011;39307;52.870;13.660;2023-05-24T02:24:16;7.97;;;3.05;;
53411;SDS011;39307;52.870;13.660;2023-05-24T02:26:43;11.37;;;3.27;;
53411;SDS011;39307;52.870;13.660;2023-05-24T02:29:09;10.90;;;2.92;;
53411;SDS011;39307;52.870;13.660;2023-05-24T02:31:36;8.43;;;2.72;;
53411;SDS011;39307;52.870;13.660;2023-05-24T02:34:02;11.20;;;3.40;;
53411;SDS011;39307;52.870;13.660;2023-05-24T02:36:28;10.50;;;3.30;;
53411;SDS011;39307;52.870;13.660;2023-05-24T02:38:54;11.13;;;2.92;;
53411;SDS011;39307;52.870;13.660;2023-05-24T02:41:20;8.68;;;2.70;;
53411;SDS011;39307;52.870;13.660;2023-05-24T02:43:47;9.18;;;2.90;;
53411;SDS011;39307;52.870;13.660;2023-05-24T02:46:13;9.75;;;2.92;;
53411;SDS011;39307;52.870;13.660;2023-05-24T02:48:39;10.27;;;3.17;;
53411;SDS011;39307;52.870;13.660;2023-05-24T02:51:06;10.48;;;3.00;;
53411;SDS011;39307;52.870;13.660;2023-05-24T02:53:32;9.73;;;2.92;;
53411;SDS011;39307;52.870;13.660;2023-05-24T02:55:58;10.23;;;3.05;;
53411;SDS011;39307;52.870;13.660;2023-05-24T02:58:25;9.50;;;3.10;;
53411;SDS011;39307;52.870;13.660;2023-05-24T03:00:51;10.15;;;3.03;;
53411;SDS011;39307;52.870;13.660;2023-05-24T03:03:17;10.07;;;2.60;;
53411;SDS011;39307;52.870;13.660;2023-05-24T03:05:43;9.98;;;2.70;;
53411;SDS011;39307;52.870;13.660;2023-05-24T03:08:09;10.05;;;3.08;;
53411;SDS011;39307;52.870;13.660;2023-05-24T03:10:36;12.00;;;3.15;;
53411;SDS011;39307;52.870;13.660;2023-05-24T03:13:02;9.50;;;3.00;;
53411;SDS011;39307;52.870;13.660;2023-05-24T03:15:28;11.88;;;3.25;;
53411;SDS011;39307;52.870;13.660;2023-05-24T03:17:54;12.33;;;3.03;;
53411;SDS011;39307;52.870;13.660;2023-05-24T03:20:20;9.77;;;3.07;;
53411;SDS011;39307;52.870;13.660;2023-05-24T03:22:47;9.37;;;2.80;;
53411;SDS011;39307;52.870;13.660;2023-05-24T03:25:13;11.43;;;3.47;;
53411;SDS011;39307;52.870;13.660;2023-05-24T03:27:39;10.17;;;3.00;;
53411;SDS011;39307;52.870;13.660;2023-05-24T03:30:06;9.63;;;2.78;;
53411;SDS011;39307;52.870;13.660;2023-05-24T03:32:34;14.85;;;3.47;;
53411;SDS011;39307;52.870;13.660;2023-05-24T03:35:00;9.23;;;2.95;;
53411;SDS011;39307;52.870;13.660;2023-05-24T03:37:26;8.07;;;2.75;;
53411;SDS011;39307;52.870;13.660;2023-05-24T03:39:52;9.88;;;2.97;;
53411;SDS011;39307;52.870;13.660;2023-05-24T03:42:19;7.85;;;2.42;;
53411;SDS011;39307;52.870;13.660;2023-05-24T03:44:45;8.70;;;2.80;;
53411;SDS011;39307;52.870;13.660;2023-05-24T03:47:11;8.35;;;2.78;;
53411;SDS011;39307;52.870;13.660;2023-05-24T03:49:37;11.65;;;2.90;;
53411;SDS011;39307;52.870;13.660;2023-05-24T03:52:04;10.40;;;2.67;;
53411;SDS011;39307;52.870;13.660;2023-05-24T03:54:30;8.02;;;2.70;;
53411;SDS011;39307;52.870;13.660;2023-05-24T03:56:56;10.02;;;2.40;;
53411;SDS011;39307;52.870;13.660;2023-05-24T03:59:22;8.70;;;2.80;;
53411;SDS011;39307;52.870;13.660;2023-05-24T04:01:49;10.25;;;2.83;;
53411;SDS011;39307;52.870;13.660;2023-05-24T04:04:15;7.93;;;2.40;;
53411;SDS011;39307;52.870;13.660;2023-05-24T04:06:41;8.93;;;2.72;;
53411;SDS011;39307;52.870;13.660;2023-05-24T04:09:07;9.80;;;2.67;;
53411;SDS011;39307;52.870;13.660;2023-05-24T04:11:34;9.45;;;2.60;;
53411;SDS011;39307;52.870;13.660;2023-05-24T04:14:00;8.77;;;2.70;;
53411;SDS011;39307;52.870;13.660;2023-05-24T04:16:26;9.63;;;2.70;;
53411;SDS011;39307;52.870;13.660;2023-05-24T04:18:56;8.85;;;3.08;;
53411;SDS011;39307;52.870;13.660;2023-05-24T04:21:22;7.68;;;2.80;;
53411;SDS011;39307;52.870;13.660;2023-05-24T04:23:48;9.05;;;3.08;;
53411;SDS011;39307;52.870;13.660;2023-05-24T04:26:15;8.77;;;2.80;;
53411;SDS011;39307;52.870;13.660;2023-05-24T04:28:41;10.02;;;3.00;;
53411;SDS011;39307;52.870;13.660;2023-05-24T04:31:07;11.88;;;2.90;;
53411;SDS011;39307;52.870;13.660;2023-05-24T04:33:33;8.85;;;2.50;;
53411;SDS011;39307;52.870;13.660;2023-05-24T04:36:00;8.75;;;2.58;;
53411;SDS011;39307;52.870;13.660;2023-05-24T04:38:27;9.27;;;2.78;;
53411;SDS011;39307;52.870;13.660;2023-05-24T04:40:54;8.95;;;2.80;;
53411;SDS011;39307;52.870;13.660;2023-05-24T04:43:20;8.60;;;2.92;;
53411;SDS011;39307;52.870;13.660;2023-05-24T04:45:47;10.27;;;2.85;;
53411;SDS011;39307;52.870;13.660;2023-05-24T04:48:13;9.32;;;2.80;;
53411;SDS011;39307;52.870;13.660;2023-05-24T04:50:39;9.20;;;2.72;;
53411;SDS011;39307;52.870;13.660;2023-05-24T04:53:06;9.43;;;3.00;;
53411;SDS011;39307;52.870;13.660;2023-05-24T04:55:32;11.02;;;3.25;;
53411;SDS011;39307;52.870;13.660;2023-05-24T04:57:59;11.68;;;3.08;;
53411;SDS011;39307;52.870;13.660;2023-05-24T05:00:25;13.27;;;3.35;;
53411;SDS011;39307;52.870;13.660;2023-05-24T05:02:52;9.48;;;3.10;;
53411;SDS011;39307;52.870;13.660;2023-05-24T05:05:18;11.23;;;3.03;;
53411;SDS011;39307;52.870;13.660;2023-05-24T05:07:44;13.13;;;3.55;;
53411;SDS011;39307;52.870;13.660;2023-05-24T05:10:11;13.00;;;3.25;;
53411;SDS011;39307;52.870;13.660;2023-05-24T05:12:37;10.37;;;3.00;;
53411;SDS011;39307;52.870;13.660;2023-05-24T05:15:03;11.70;;;3.15;;
53411;SDS011;39307;52.870;13.660;2023-05-24T05:17:30;14.23;;;3.70;;
53411;SDS011;39307;52.870;13.660;2023-05-24T05:19:56;11.15;;;3.80;;
53411;SDS011;39307;52.870;13.660;2023-05-24T05:22:22;11.30;;;3.35;;
53411;SDS011;39307;52.870;13.660;2023-05-24T05:24:48;10.23;;;3.17;;
53411;SDS011;39307;52.870;13.660;2023-05-24T05:27:15;13.85;;;3.97;;
53411;SDS011;39307;52.870;13.660;2023-05-24T05:29:41;12.35;;;3.33;;
53411;SDS011;39307;52.870;13.660;2023-05-24T05:32:07;13.18;;;3.97;;
53411;SDS011;39307;52.870;13.660;2023-05-24T05:34:33;11.30;;;3.43;;
53411;SDS011;39307;52.870;13.660;2023-05-24T05:36:59;15.50;;;4.40;;
53411;SDS011;39307;52.870;13.660;2023-05-24T05:39:26;13.07;;;3.57;;
53411;SDS011;39307;52.870;13.660;2023-05-24T05:41:52;13.03;;;3.77;;
53411;SDS011;39307;52.870;13.660;2023-05-24T05:44:18;18.87;;;4.27;;
53411;SDS011;39307;52.870;13.660;2023-05-24T05:46:45;14.30;;;4.47;;
53411;SDS011;39307;52.870;13.660;2023-05-24T05:49:11;12.57;;;3.65;;
53411;SDS011;39307;52.870;13.660;2023-05-24T05:51:38;14.20;;;3.78;;
53411;SDS011;39307;52.870;13.660;2023-05-24T05:54:04;12.83;;;3.90;;
53411;SDS011;39307;52.870;13.660;2023-05-24T05:56:31;12.50;;;3.92;;
53411;SDS011;39307;52.870;13.660;2023-05-24T05:58:57;12.88;;;4.35;;
53411;SDS011;39307;52.870;13.660;2023-05-24T06:01:23;10.90;;;3.60;;
53411;SDS011;39307;52.870;13.660;2023-05-24T06:03:49;12.65;;;3.92;;
53411;SDS011;39307;52.870;13.660;2023-05-24T06:06:16;12.30;;;3.88;;
53411;SDS011;39307;52.870;13.660;2023-05-24T06:08:42;13.05;;;3.97;;
53411;SDS011;39307;52.870;13.660;2023-05-24T06:11:08;12.88;;;4.13;;
53411;SDS011;39307;52.870;13.660;2023-05-24T06:13:34;11.75;;;3.65;;
53411;SDS011;39307;52.870;13.660;2023-05-24T06:16:00;13.25;;;4.00;;
53411;SDS011;39307;52.870;13.660;2023-05-24T06:18:27;13.13;;;4.05;;
53411;SDS011;39307;52.870;13.660;2023-05-24T06:20:53;15.55;;;4.13;;
53411;SDS011;39307;52.870;13.660;2023-05-24T06:23:19;12.40;;;4.07;;
53411;SDS011;39307;52.870;13.660;2023-05-24T06:25:45;16.58;;;4.90;;
53411;SDS011;39307;52.870;13.660;2023-05-24T06:28:11;11.82;;;3.97;;
53411;SDS011;39307;52.870;13.660;2023-05-24T06:30:38;14.15;;;3.72;;
53411;SDS011;39307;52.870;13.660;2023-05-24T06:33:04;13.63;;;3.70;;
53411;SDS011;39307;52.870;13.660;2023-05-24T06:35:30;15.23;;;4.18;;
53411;SDS011;39307;52.870;13.660;2023-05-24T06:37:57;12.27;;;3.78;;
53411;SDS011;39307;52.870;13.660;2023-05-24T06:40:23;15.10;;;4.17;;
53411;SDS011;39307;52.870;13.660;2023-05-24T06:42:49;14.63;;;4.07;;
53411;SDS011;39307;52.870;13.660;2023-05-24T06:45:16;13.43;;;3.90;;
53411;SDS011;39307;52.870;13.660;2023-05-24T06:47:42;14.27;;;4.22;;
53411;SDS011;39307;52.870;13.660;2023-05-24T06:50:09;13.00;;;3.85;;
53411;SDS011;39307;52.870;13.660;2023-05-24T06:52:35;12.95;;;4.10;;
53411;SDS011;39307;52.870;13.660;2023-05-24T06:55:01;13.38;;;4.00;;
53411;SDS011;39307;52.870;13.660;2023-05-24T06:57:28;14.45;;;3.90;;
53411;SDS011;39307;52.870;13.660;2023-05-24T06:59:54;13.77;;;4.28;;
53411;SDS011;39307;52.870;13.660;2023-05-24T07:02:20;12.05;;;4.00;;
53411;SDS011;39307;52.870;13.660;2023-05-24T07:04:46;12.50;;;4.03;;
53411;SDS011;39307;52.870;13.660;2023-05-24T07:07:13;12.52;;;3.88;;
53411;SDS011;39307;52.870;13.660;2023-05-24T07:09:39;13.25;;;4.13;;
53411;SDS011;39307;52.870;13.660;2023-05-24T07:12:05;9.93;;;3.33;;
53411;SDS011;39307;52.870;13.660;2023-05-24T07:14:32;11.77;;;4.00;;
53411;SDS011;39307;52.870;13.660;2023-05-24T07:16:58;15.10;;;4.25;;
53411;SDS011;39307;52.870;13.660;2023-05-24T07:19:24;14.13;;;4.07;;
53411;SDS011;39307;52.870;13.660;2023-05-24T07:21:50;10.80;;;3.65;;
53411;SDS011;39307;52.870;13.660;2023-05-24T07:24:17;12.75;;;3.83;;
53411;SDS011;39307;52.870;13.660;2023-05-24T07:26:43;13.70;;;3.97;;
53411;SDS011;39307;52.870;13.660;2023-05-24T07:29:09;12.90;;;4.30;;
53411;SDS011;39307;52.870;13.660;2023-05-24T07:31:36;11.73;;;3.80;;
53411;SDS011;39307;52.870;13.660;2023-05-24T07:34:02;9.63;;;3.50;;
53411;SDS011;39307;52.870;13.660;2023-05-24T07:36:29;13.35;;;4.00;;
53411;SDS011;39307;52.870;13.660;2023-05-24T07:38:55;14.80;;;3.70;;
53411;SDS011;39307;52.870;13.660;2023-05-24T07:41:24;15.93;;;4.03;;
53411;SDS011;39307;52.870;13.660;2023-05-24T07:43:53;12.82;;;4.40;;
53411;SDS011;39307;52.870;13.660;2023-05-24T07:46:20;11.95;;;4.22;;
53411;SDS011;39307;52.870;13.660;2023-05-24T07:48:47;11.50;;;3.97;;
53411;SDS011;39307;52.870;13.660;2023-05-24T07:51:14;11.32;;;3.60;;
53411;SDS011;39307;52.870;13.660;2023-05-24T07:53:40;13.35;;;3.95;;
53411;SDS011;39307;52.870;13.660;2023-05-24T07:56:06;13.05;;;4.00;;
53411;SDS011;39307;52.870;13.660;2023-05-24T07:58:33;13.48;;;3.75;;
53411;SDS011;39307;52.870;13.660;2023-05-24T08:00:59;9.57;;;2.90;;
53411;SDS011;39307;52.870;13.660;2023-05-24T08:03:26;11.45;;;3.35;;
53411;SDS011;39307;52.870;13.660;2023-05-24T08:05:52;9.35;;;3.20;;
53411;SDS011;39307;52.870;13.660;2023-05-24T08:08:18;13.40;;;3.95;;
53411;SDS011;39307;52.870;13.660;2023-05-24T08:10:44;10.00;;;3.00;;
53411;SDS011;39307;52.870;13.660;2023-05-24T08:13:11;13.80;;;4.80;;
53411;SDS011;39307;52.870;13.660;2023-05-24T08:15:37;9.23;;;3.38;;
53411;SDS011;39307;52.870;13.660;2023-05-24T08:18:03;8.35;;;2.78;;
53411;SDS011;39307;52.870;13.660;2023-05-24T08:20:30;9.55;;;3.50;;
53411;SDS011;39307;52.870;13.660;2023-05-24T08:22:57;11.63;;;3.17;;
53411;SDS011;39307;52.870;13.660;2023-05-24T08:25:23;7.20;;;2.83;;
53411;SDS011;39307;52.870;13.660;2023-05-24T08:27:49;9.50;;;3.15;;
53411;SDS011;39307;52.870;13.660;2023-05-24T08:30:15;10.48;;;3.53;;
53411;SDS011;39307;52.870;13.660;2023-05-24T08:32:42;14.98;;;3.58;;
53411;SDS011;39307;52.870;13.660;2023-05-24T08:35:08;18.15;;;4.53;;
53411;SDS011;39307;52.870;13.660;2023-05-24T08:37:34;13.03;;;4.07;;
53411;SDS011;39307;52.870;13.660;2023-05-24T08:40:00;12.53;;;4.03;;
53411;SDS011;39307;52.870;13.660;2023-05-24T08:42:27;12.47;;;3.53;;
53411;SDS011;39307;52.870;13.660;2023-05-24T08:44:58;11.32;;;3.72;;
53411;SDS011;39307;52.870;13.660;2023-05-24T08:47:33;11.70;;;3.35;;
53411;SDS011;39307;52.870;13.660;2023-05-24T08:50:01;11.35;;;3.42;;
53411;SDS011;39307;52.870;13.660;2023-05-24T08:52:29;8.00;;;3.00;;
53411;SDS011;39307;52.870;13.660;2023-05-24T08:55:00;11.90;;;3.67;;
53411;SDS011;39307;52.870;13.660;2023-05-24T08:57:28;10.57;;;3.25;;
53411;SDS011;39307;52.870;13.660;2023-05-24T08:59:59;8.48;;;3.30;;
53411;SDS011;39307;52.870;13.660;2023-05-24T09:02:25;9.52;;;2.92;;
53411;SDS011;39307;52.870;13.660;2023-05-24T09:04:52;8.07;;;2.75;;
53411;SDS011;39307;52.870;13.660;2023-05-24T09:07:20;9.63;;;3.35;;
53411;SDS011;39307;52.870;13.660;2023-05-24T09:09:49;10.73;;;3.40;;
53411;SDS011;39307;52.870;13.660;2023-05-24T09:12:20;9.23;;;3.00;;
53411;SDS011;39307;52.870;13.660;2023-05-24T09:14:48;12.02;;;3.50;;
53411;SDS011;39307;52.870;13.660;2023-05-24T09:17:15;10.82;;;3.60;;
53411;SDS011;39307;52.870;13.660;2023-05-24T09:19:45;11.38;;;3.85;;
53411;SDS011;39307;52.870;13.660;2023-05-24T09:22:15;10.90;;;3.88;;
53411;SDS011;39307;52.870;13.660;2023-05-24T09:24:48;10.98;;;3.33;;
53411;SDS011;39307;52.870;13.660;2023-05-24T09:27:15;6.55;;;2.85;;
53411;SDS011;39307;52.870;13.660;2023-05-24T09:29:42;8.27;;;2.90;;
53411;SDS011;39307;52.870;13.660;2023-05-24T09:32:09;8.85;;;3.10;;
53411;SDS011;39307;52.870;13.660;2023-05-24T09:34:38;11.55;;;3.58;;
53411;SDS011;39307;52.870;13.660;2023-05-24T09:37:05;9.57;;;2.90;;
53411;SDS011;39307;52.870;13.660;2023-05-24T09:39:35;10.40;;;3.47;;
53411;SDS011;39307;52.870;13.660;2023-05-24T09:42:01;12.63;;;4.10;;
53411;SDS011;39307;52.870;13.660;2023-05-24T09:44:28;10.20;;;3.10;;
53411;SDS011;39307;52.870;13.660;2023-05-24T09:47:00;10.90;;;3.30;;
53411;SDS011;39307;52.870;13.660;2023-05-24T09:49:27;12.05;;;3.38;;
53411;SDS011;39307;52.870;13.660;2023-05-24T09:51:54;9.65;;;3.50;;
53411;SDS011;39307;52.870;13.660;2023-05-24T09:54:20;7.72;;;2.78;;
53411;SDS011;39307;52.870;13.660;2023-05-24T09:56:46;11.00;;;3.42;;
53411;SDS011;39307;52.870;13.660;2023-05-24T09:59:12;9.93;;;3.28;;
53411;SDS011;39307;52.870;13.660;2023-05-24T10:01:39;11.90;;;3.35;;
53411;SDS011;39307;52.870;13.660;2023-05-24T10:04:05;10.90;;;3.38;;
53411;SDS011;39307;52.870;13.660;2023-05-24T10:06:35;8.45;;;3.10;;
53411;SDS011;39307;52.870;13.660;2023-05-24T10:09:02;9.10;;;3.55;;
53411;SDS011;39307;52.870;13.660;2023-05-24T10:11:29;9.40;;;3.42;;
53411;SDS011;39307;52.870;13.660;2023-05-24T10:13:56;9.37;;;3.03;;
53411;SDS011;39307;52.870;13.660;2023-05-24T10:16:24;10.53;;;3.43;;
53411;SDS011;39307;52.870;13.660;2023-05-24T10:18:50;9.40;;;2.80;;
53411;SDS011;39307;52.870;13.660;2023-05-24T10:21:16;8.65;;;2.75;;
53411;SDS011;39307;52.870;13.660;2023-05-24T10:23:45;10.73;;;3.17;;
53411;SDS011;39307;52.870;13.660;2023-05-24T10:26:22;9.65;;;3.20;;
53411;SDS011;39307;52.870;13.660;2023-05-24T10:28:50;8.23;;;3.13;;
53411;SDS011;39307;52.870;13.660;2023-05-24T10:31:28;9.48;;;3.00;;
53411;SDS011;39307;52.870;13.660;2023-05-24T10:33:58;11.03;;;3.37;;
53411;SDS011;39307;52.870;13.660;2023-05-24T10:36:26;12.07;;;3.30;;
53411;SDS011;39307;52.870;13.660;2023-05-24T10:38:53;8.75;;;2.80;;
53411;SDS011;39307;52.870;13.660;2023-05-24T10:41:20;9.63;;;3.13;;
53411;SDS011;39307;52.870;13.660;2023-05-24T10:43:50;11.80;;;3.83;;
53411;SDS011;39307;52.870;13.660;2023-05-24T10:46:18;9.07;;;2.90;;
53411;SDS011;39307;52.870;13.660;2023-05-24T10:48:57;8.52;;;3.22;;
53411;SDS011;39307;52.870;13.660;2023-05-24T10:51:37;9.30;;;3.07;;
53411;SDS011;39307;52.870;13.660;2023-05-24T10:54:36;7.47;;;2.83;;
53411;SDS011;39307;52.870;13.660;2023-05-24T10:56:59;7.13;;;2.80;;
53411;SDS011;39307;52.870;13.660;2023-05-24T10:59:33;8.93;;;2.92;;
53411;SDS011;39307;52.870;13.660;2023-05-24T11:02:00;9.35;;;3.42;;
53411;SDS011;39307;52.870;13.660;2023-05-24T11:04:32;10.52;;;3.13;;
53411;SDS011;39307;52.870;13.660;2023-05-24T11:07:02;9.02;;;2.83;;
53411;SDS011;39307;52.870;13.660;2023-05-24T11:09:30;11.38;;;3.42;;
53411;SDS011;39307;52.870;13.660;2023-05-24T11:12:01;10.40;;;3.45;;
53411;SDS011;39307;52.870;13.660;2023-05-24T11:14:50;11.23;;;3.28;;
53411;SDS011;39307;52.870;13.660;2023-05-24T11:17:21;10.13;;;3.47;;
53411;SDS011;39307;52.870;13.660;2023-05-24T11:19:51;9.13;;;3.40;;
53411;SDS011;39307;52.870;13.660;2023-05-24T11:22:20;11.47;;;3.67;;
53411;SDS011;39307;52.870;13.660;2023-05-24T11:24:47;10.50;;;3.25;;
53411;SDS011;39307;52.870;13.660;2023-05-24T11:27:14;8.30;;;2.72;;
53411;SDS011;39307;52.870;13.660;2023-05-24T11:29:41;7.78;;;2.90;;
53411;SDS011;39307;52.870;13.660;2023-05-24T11:32:08;7.20;;;2.67;;
53411;SDS011;39307;52.870;13.660;2023-05-24T11:34:39;8.90;;;3.08;;
53411;SDS011;39307;52.870;13.660;2023-05-24T11:37:05;9.88;;;3.28;;
53411;SDS011;39307;52.870;13.660;2023-05-24T11:39:32;8.88;;;2.85;;
53411;SDS011;39307;52.870;13.660;2023-05-24T11:41:59;11.50;;;3.53;;
53411;SDS011;39307;52.870;13.660;2023-05-24T11:44:31;9.13;;;3.05;;
53411;SDS011;39307;52.870;13.660;2023-05-24T11:46:58;10.67;;;2.70;;
53411;SDS011;39307;52.870;13.660;2023-05-24T11:49:25;11.40;;;3.00;;
53411;SDS011;39307;52.870;13.660;2023-05-24T11:51:54;8.60;;;2.97;;
53411;SDS011;39307;52.870;13.660;2023-05-24T11:54:22;10.27;;;3.20;;
53411;SDS011;39307;52.870;13.660;2023-05-24T11:56:50;10.23;;;3.22;;
53411;SDS011;39307;52.870;13.660;2023-05-24T11:59:21;8.32;;;2.88;;
53411;SDS011;39307;52.870;13.660;2023-05-24T12:01:49;9.88;;;3.42;;
53411;SDS011;39307;52.870;13.660;2023-05-24T12:04:26;9.18;;;3.05;;
53411;SDS011;39307;52.870;13.660;2023-05-24T12:06:53;9.70;;;2.88;;
53411;SDS011;39307;52.870;13.660;2023-05-24T12:09:20;8.23;;;3.03;;
53411;SDS011;39307;52.870;13.660;2023-05-24T12:11:47;6.93;;;2.88;;
53411;SDS011;39307;52.870;13.660;2023-05-24T12:14:21;8.60;;;3.00;;
53411;SDS011;39307;52.870;13.660;2023-05-24T12:16:53;7.30;;;2.70;;
53411;SDS011;39307;52.870;13.660;2023-05-24T12:19:20;9.52;;;3.05;;
53411;SDS011;39307;52.870;13.660;2023-05-24T12:21:47;8.23;;;3.00;;
53411;SDS011;39307;52.870;13.660;2023-05-24T12:24:15;13.90;;;3.55;;
53411;SDS011;39307;52.870;13.660;2023-05-24T12:26:47;9.23;;;3.00;;
53411;SDS011;39307;52.870;13.660;2023-05-24T12:29:15;9.48;;;2.83;;
53411;SDS011;39307;52.870;13.660;2023-05-24T12:31:46;9.47;;;2.70;;
53411;SDS011;39307;52.870;13.660;2023-05-24T12:34:17;7.65;;;2.90;;
53411;SDS011;39307;52.870;13.660;2023-05-24T12:36:44;9.35;;;2.80;;
53411;SDS011;39307;52.870;13.660;2023-05-24T12:39:17;7.37;;;2.77;;
53411;SDS011;39307;52.870;13.660;2023-05-24T12:41:51;8.73;;;3.10;;
53411;SDS011;39307;52.870;13.660;2023-05-24T12:44:25;10.67;;;3.07;;
53411;SDS011;39307;52.870;13.660;2023-05-24T12:46:53;8.85;;;2.83;;
53411;SDS011;39307;52.870;13.660;2023-05-24T12:49:21;10.83;;;3.37;;
53411;SDS011;39307;52.870;13.660;2023-05-24T12:51:48;8.50;;;2.30;;
53411;SDS011;39307;52.870;13.660;2023-05-24T12:54:18;9.52;;;3.38;;
53411;SDS011;39307;52.870;13.660;2023-05-24T12:56:48;8.50;;;2.83;;
53411;SDS011;39307;52.870;13.660;2023-05-24T12:59:14;10.02;;;3.20;;
53411;SDS011;39307;52.870;13.660;2023-05-24T13:01:41;7.60;;;2.60;;
53411;SDS011;39307;52.870;13.660;2023-05-24T13:04:08;10.13;;;3.03;;
53411;SDS011;39307;52.870;13.660;2023-05-24T13:06:34;8.47;;;2.70;;
53411;SDS011;39307;52.870;13.660;2023-05-24T13:09:01;7.85;;;2.85;;
53411;SDS011;39307;52.870;13.660;2023-05-24T13:11:27;8.03;;;2.60;;
53411;SDS011;39307;52.870;13.660;2023-05-24T13:13:54;10.43;;;3.30;;
53411;SDS011;39307;52.870;13.660;2023-05-24T13:16:21;9.57;;;3.57;;
53411;SDS011;39307;52.870;13.660;2023-05-24T13:18:48;8.90;;;3.17;;
53411;SDS011;39307;52.870;13.660;2023-05-24T13:21:15;9.77;;;2.97;;
53411;SDS011;39307;52.870;13.660;2023-05-24T13:23:41;10.15;;;3.45;;
53411;SDS011;39307;52.870;13.660;2023-05-24T13:26:08;9.32;;;3.15;;
53411;SDS011;39307;52.870;13.660;2023-05-24T13:28:34;8.75;;;2.95;;
53411;SDS011;39307;52.870;13.660;2023-05-24T13:31:00;7.22;;;2.90;;
53411;SDS011;39307;52.870;13.660;2023-05-24T13:33:26;10.02;;;3.30;;
53411;SDS011;39307;52.870;13.660;2023-05-24T13:35:53;7.97;;;2.50;;
53411;SDS011;39307;52.870;13.660;2023-05-24T13:38:19;10.00;;;3.30;;
53411;SDS011;39307;52.870;13.660;2023-05-24T13:40:46;9.10;;;2.92;;
53411;SDS011;39307;52.870;13.660;2023-05-24T13:43:12;9.23;;;3.00;;
53411;SDS011;39307;52.870;13.660;2023-05-24T13:45:39;6.90;;;2.83;;
53411;SDS011;39307;52.870;13.660;2023-05-24T13:48:05;9.65;;;3.17;;
53411;SDS011;39307;52.870;13.660;2023-05-24T13:50:32;9.30;;;3.20;;
53411;SDS011;39307;52.870;13.660;2023-05-24T13:53:00;9.77;;;3.58;;
53411;SDS011;39307;52.870;13.660;2023-05-24T13:55:27;11.20;;;5.73;;
53411;SDS011;39307;52.870;13.660;2023-05-24T13:57:54;9.30;;;4.33;;
53411;SDS011;39307;52.870;13.660;2023-05-24T14:00:21;8.18;;;3.10;;
53411;SDS011;39307;52.870;13.660;2023-05-24T14:02:48;9.88;;;3.20;;
53411;SDS011;39307;52.870;13.660;2023-05-24T14:05:14;8.98;;;3.00;;
53411;SDS011;39307;52.870;13.660;2023-05-24T14:07:41;7.55;;;2.65;;
53411;SDS011;39307;52.870;13.660;2023-05-24T14:10:07;10.60;;;3.15;;
53411;SDS011;39307;52.870;13.660;2023-05-24T14:12:33;6.53;;;2.67;;
53411;SDS011;39307;52.870;13.660;2023-05-24T14:15:00;10.67;;;3.33;;
53411;SDS011;39307;52.870;13.660;2023-05-24T14:17:26;8.50;;;2.90;;
53411;SDS011;39307;52.870;13.660;2023-05-24T14:19:52;9.82;;;3.15;;
53411;SDS011;39307;52.870;13.660;2023-05-24T14:22:19;8.40;;;2.83;;
53411;SDS011;39307;52.870;13.660;2023-05-24T14:24:45;12.20;;;2.88;;
53411;SDS011;39307;52.870;13.660;2023-05-24T14:27:11;11.10;;;3.47;;
53411;SDS011;39307;52.870;13.660;2023-05-24T14:29:37;7.05;;;2.80;;
53411;SDS011;39307;52.870;13.660;2023-05-24T14:32:03;9.60;;;2.77;;
53411;SDS011;39307;52.870;13.660;2023-05-24T14:34:30;8.25;;;3.00;;
53411;SDS011;39307;52.870;13.660;2023-05-24T14:36:56;9.52;;;3.10;;
53411;SDS011;39307;52.870;13.660;2023-05-24T14:39:22;8.53;;;2.80;;